createdAt,value
2023-03-13T00:01:49.091Z,46.50
2023-03-13T00:04:17.331Z,39.10
2023-03-13T00:06:45.694Z,37.30
2023-03-13T00:09:15.613Z,38.70
2023-03-13T00:11:45.881Z,34.30
2023-03-13T00:14:14.328Z,20.10
2023-03-13T00:16:42.685Z,34.00
2023-03-13T00:19:11.049Z,30.90
2023-03-13T00:21:41.538Z,39.10
2023-03-13T00:24:12.516Z,37.80
2023-03-13T00:26:40.902Z,39.20
2023-03-13T00:29:09.193Z,36.70
2023-03-13T00:31:37.717Z,32.30
2023-03-13T00:34:06.070Z,34.60
2023-03-13T00:36:35.769Z,28.80
2023-03-13T00:39:06.065Z,24.30
2023-03-13T00:41:38.241Z,27.70
2023-03-13T00:44:06.992Z,30.00
2023-03-13T00:46:35.543Z,25.60
2023-03-13T00:49:04.797Z,68.60
2023-03-13T00:51:35.800Z,43.00
2023-03-13T00:54:04.973Z,22.70
2023-03-13T00:56:34.368Z,18.60
2023-03-13T00:59:03.211Z,20.70
2023-03-13T01:01:33.864Z,17.90
2023-03-13T01:04:12.435Z,18.00
2023-03-13T01:06:44.689Z,20.10
2023-03-13T01:09:15.208Z,16.50
2023-03-13T01:11:45.144Z,25.50
2023-03-13T01:14:18.564Z,15.80
2023-03-13T01:16:47.894Z,17.60
2023-03-13T01:19:17.166Z,17.10
2023-03-13T01:21:47.518Z,18.60
2023-03-13T01:24:17.006Z,16.20
2023-03-13T01:26:45.283Z,16.60
2023-03-13T01:29:14.571Z,16.20
2023-03-13T01:31:42.886Z,13.30
2023-03-13T01:34:11.662Z,17.40
2023-03-13T01:36:39.761Z,16.00
2023-03-13T01:39:08.446Z,16.10
2023-03-13T01:41:38.405Z,17.10
2023-03-13T01:44:06.876Z,20.20
2023-03-13T01:46:37.832Z,25.00
2023-03-13T01:49:35.016Z,16.60
2023-03-13T01:52:13.037Z,16.80
2023-03-13T01:54:53.986Z,20.40
2023-03-13T01:57:32.655Z,17.40
2023-03-13T02:00:08.302Z,19.60
2023-03-13T02:02:47.184Z,18.90
2023-03-13T02:05:17.430Z,19.90
2023-03-13T02:07:56.464Z,18.20
2023-03-13T02:10:26.093Z,20.20
2023-03-13T02:13:01.102Z,17.80
2023-03-13T02:15:30.670Z,22.10
2023-03-13T02:18:00.256Z,19.00
2023-03-13T02:20:28.706Z,21.70
2023-03-13T02:23:20.373Z,21.20
2023-03-13T02:25:51.638Z,23.90
2023-03-13T02:30:59.023Z,21.60
2023-03-13T02:33:31.532Z,19.80
2023-03-13T02:36:02.386Z,24.00
2023-03-13T02:38:34.659Z,14.50
2023-03-13T02:41:05.209Z,13.20
2023-03-13T02:43:36.141Z,11.40
2023-03-13T02:46:05.951Z,12.60
2023-03-13T02:48:39.054Z,13.20
2023-03-13T02:51:36.560Z,13.40
2023-03-13T02:54:16.540Z,13.30
2023-03-13T02:56:49.258Z,11.90
2023-03-13T02:59:17.817Z,14.80
2023-03-13T03:01:46.700Z,14.00
2023-03-13T03:04:14.934Z,12.60
2023-03-13T03:06:43.207Z,18.20
2023-03-13T03:09:11.532Z,11.60
2023-03-13T03:11:40.181Z,13.10
2023-03-13T03:14:12.963Z,13.90
2023-03-13T03:16:44.842Z,12.90
2023-03-13T03:19:13.336Z,12.30
2023-03-13T03:21:41.755Z,12.40
2023-03-13T03:24:09.918Z,13.40
2023-03-13T03:26:38.402Z,14.50
2023-03-13T03:29:12.004Z,12.60
2023-03-13T03:31:40.528Z,16.00
2023-03-13T03:34:08.721Z,15.80
2023-03-13T03:36:36.970Z,14.60
2023-03-13T03:39:05.566Z,12.20
2023-03-13T03:41:34.122Z,12.70
2023-03-13T03:44:02.320Z,11.60
2023-03-13T03:46:37.585Z,10.90
2023-03-13T03:49:05.848Z,12.80
2023-03-13T03:51:34.113Z,12.60
2023-03-13T03:54:02.405Z,15.30
2023-03-13T03:56:31.717Z,16.60
2023-03-13T03:59:00.520Z,11.20
2023-03-13T04:01:58.226Z,10.80
2023-03-13T04:04:28.249Z,9.20
2023-03-13T04:07:19.288Z,12.80
2023-03-13T04:09:47.698Z,11.30
2023-03-13T04:12:23.399Z,10.10
2023-03-13T04:14:53.889Z,9.70
2023-03-13T04:17:22.786Z,10.90
2023-03-13T04:19:51.114Z,9.80
2023-03-13T04:22:19.663Z,10.10
2023-03-13T04:24:52.145Z,9.90
2023-03-13T04:27:21.883Z,73.90
2023-03-13T04:29:51.407Z,13.40
2023-03-13T04:32:40.106Z,8.80
2023-03-13T04:35:44.519Z,7.20
2023-03-13T04:38:25.906Z,12.80
2023-03-13T04:41:19.998Z,14.50
2023-03-13T04:44:20.657Z,19.00
2023-03-13T04:46:59.659Z,22.50
2023-03-13T04:49:48.075Z,19.00
2023-03-13T04:52:22.620Z,18.20
2023-03-13T04:55:21.065Z,15.00
2023-03-13T04:58:11.991Z,11.30
2023-03-13T05:01:00.271Z,6.70
2023-03-13T05:03:49.452Z,8.20
2023-03-13T05:06:27.288Z,7.40
2023-03-13T05:09:15.927Z,486.60
2023-03-13T05:12:14.018Z,240.20
2023-03-13T05:14:54.833Z,15.80
2023-03-13T05:17:43.236Z,84.60
2023-03-13T05:20:25.689Z,37.40
2023-03-13T05:23:23.148Z,18.80
2023-03-13T05:26:04.186Z,12.80
2023-03-13T05:28:55.545Z,18.30
2023-03-13T05:31:41.013Z,24.50
2023-03-13T05:34:38.532Z,36.40
2023-03-13T05:37:32.816Z,27.70
2023-03-13T05:40:04.445Z,29.70
2023-03-13T05:42:51.281Z,37.90
2023-03-13T05:45:26.353Z,19.80
2023-03-13T05:48:14.663Z,41.60
2023-03-13T05:51:08.789Z,67.50
2023-03-13T05:53:55.655Z,81.00
2023-03-13T05:56:48.971Z,125.70
2023-03-13T05:59:43.653Z,107.10
2023-03-13T06:02:30.246Z,92.60
2023-03-13T06:05:00.019Z,108.00
2023-03-13T06:07:28.192Z,89.40
2023-03-13T06:09:56.612Z,66.00
2023-03-13T06:12:26.232Z,65.50
2023-03-13T06:14:55.480Z,49.10
2023-03-13T06:17:51.668Z,47.20
2023-03-13T06:20:19.844Z,46.00
2023-03-13T06:22:48.147Z,40.90
2023-03-13T06:25:16.506Z,39.60
2023-03-13T06:27:45.160Z,28.60
2023-03-13T06:30:13.493Z,21.40
2023-03-13T06:32:42.003Z,30.20
2023-03-13T06:35:10.366Z,22.70
2023-03-13T06:37:39.086Z,220.80
2023-03-13T06:40:07.735Z,34.70
2023-03-13T06:42:36.020Z,28.60
2023-03-13T06:45:05.119Z,44.60
2023-03-13T06:47:33.305Z,44.90
2023-03-13T06:50:02.029Z,44.20
2023-03-13T06:52:42.806Z,77.70
2023-03-13T06:55:13.025Z,80.20
2023-03-13T06:57:41.728Z,74.90
2023-03-13T07:00:11.881Z,72.60
2023-03-13T07:02:40.079Z,62.60
2023-03-13T07:05:08.862Z,45.30
2023-03-13T07:07:37.727Z,43.00
2023-03-13T07:10:06.637Z,57.70
2023-03-13T07:12:36.158Z,53.70
2023-03-13T07:15:06.358Z,37.90
2023-03-13T07:17:35.378Z,25.70
2023-03-13T07:20:06.801Z,33.10
2023-03-13T07:22:37.345Z,25.20
2023-03-13T07:25:07.211Z,18.50
2023-03-13T07:27:36.525Z,21.50
2023-03-13T07:30:06.059Z,29.20
2023-03-13T07:32:34.430Z,27.60
2023-03-13T07:35:05.271Z,12.80
2023-03-13T07:37:33.442Z,16.70
2023-03-13T07:40:02.014Z,17.60
2023-03-13T07:42:30.498Z,20.30
2023-03-13T07:44:59.144Z,22.50
2023-03-13T07:47:27.546Z,19.40
2023-03-13T07:49:56.350Z,18.20
2023-03-13T07:52:28.129Z,19.00
2023-03-13T07:54:56.816Z,15.60
2023-03-13T07:57:27.414Z,16.00
2023-03-13T07:59:58.156Z,28.60
2023-03-13T08:02:28.376Z,18.20
2023-03-13T08:04:58.965Z,17.10
2023-03-13T08:07:27.402Z,13.10
2023-03-13T08:09:56.779Z,12.90
2023-03-13T08:12:25.104Z,11.40
2023-03-13T08:14:53.249Z,13.30
2023-03-13T08:17:21.660Z,11.10
2023-03-13T08:19:49.956Z,10.00
2023-03-13T08:22:18.141Z,12.70
2023-03-13T08:24:46.529Z,10.00
2023-03-13T08:27:14.764Z,17.20
2023-03-13T08:29:43.464Z,10.60
2023-03-13T08:32:11.675Z,11.00
2023-03-13T08:34:39.909Z,17.00
2023-03-13T08:37:08.309Z,12.70
2023-03-13T08:39:37.766Z,11.60
2023-03-13T08:42:11.257Z,13.20
2023-03-13T08:44:39.758Z,7.00
2023-03-13T08:47:08.667Z,10.40
2023-03-13T08:49:37.423Z,9.50
2023-03-13T08:52:06.871Z,7.90
2023-03-13T08:54:36.538Z,8.30
2023-03-13T08:57:05.353Z,8.80
2023-03-13T08:59:33.607Z,7.30
2023-03-13T09:02:03.417Z,8.00
2023-03-13T09:04:31.975Z,6.10
2023-03-13T09:07:00.345Z,11.40
2023-03-13T09:09:28.733Z,7.40
2023-03-13T09:11:57.674Z,6.90
2023-03-13T09:14:26.640Z,11.80
2023-03-13T09:16:54.842Z,10.20
2023-03-13T09:19:23.724Z,8.80
2023-03-13T09:21:51.967Z,9.70
2023-03-13T09:24:20.366Z,10.20
2023-03-13T09:27:00.403Z,11.20
2023-03-13T09:29:29.289Z,9.80
2023-03-13T09:31:57.538Z,10.10
2023-03-13T09:34:25.822Z,13.20
2023-03-13T09:36:54.535Z,12.90
2023-03-13T09:39:23.893Z,13.40
2023-03-13T09:42:07.822Z,10.60
2023-03-13T09:45:04.293Z,9.20
2023-03-13T09:47:43.680Z,6.50
2023-03-13T09:50:35.104Z,8.90
2023-03-13T09:53:31.518Z,12.50
2023-03-13T09:56:01.378Z,8.00
2023-03-13T09:58:30.762Z,8.30
2023-03-13T10:01:02.709Z,9.70
2023-03-13T10:03:39.141Z,10.20
2023-03-13T10:06:20.201Z,7.50
2023-03-13T10:08:48.340Z,15.10
2023-03-13T10:11:42.050Z,13.10
2023-03-13T10:14:31.117Z,12.00
2023-03-13T10:17:25.392Z,12.30
2023-03-13T10:20:01.554Z,6.30
2023-03-13T10:22:32.568Z,7.40
2023-03-13T10:25:07.313Z,10.10
2023-03-13T10:28:05.253Z,10.10
2023-03-13T10:30:43.624Z,7.30
2023-03-13T10:33:11.823Z,6.20
2023-03-13T10:35:42.890Z,8.80
2023-03-13T10:38:18.234Z,7.70
2023-03-13T10:41:20.115Z,7.00
2023-03-13T10:43:59.450Z,6.70
2023-03-13T10:46:33.437Z,8.50
2023-03-13T10:49:04.770Z,7.10
2023-03-13T10:51:50.530Z,6.80
2023-03-13T10:54:35.300Z,7.20
2023-03-13T10:57:19.289Z,6.50
2023-03-13T10:59:50.474Z,6.90
2023-03-13T11:02:39.684Z,5.80
2023-03-13T11:05:32.801Z,6.60
2023-03-13T11:08:21.364Z,5.50
2023-03-13T11:11:01.260Z,7.20
2023-03-13T11:13:43.475Z,6.30
2023-03-13T11:16:32.456Z,4.30
2023-03-13T11:19:18.762Z,5.70
2023-03-13T11:22:08.760Z,15.10
2023-03-13T11:25:01.445Z,5.10
2023-03-13T11:27:42.741Z,19.50
2023-03-13T11:30:32.932Z,7.60
2023-03-13T11:33:05.770Z,8.50
2023-03-13T11:35:50.023Z,5.70
2023-03-13T11:38:27.572Z,6.60
2023-03-13T11:41:14.118Z,6.00
2023-03-13T11:44:09.325Z,6.40
2023-03-13T11:46:50.133Z,6.20
2023-03-13T11:49:27.762Z,5.00
2023-03-13T11:52:29.049Z,9.90
2023-03-13T11:55:17.814Z,7.40
2023-03-13T11:57:54.708Z,7.90
2023-03-13T12:00:39.085Z,6.50
2023-03-13T12:03:22.750Z,4.50
2023-03-13T12:05:57.627Z,3.50
2023-03-13T12:08:32.099Z,5.10
2023-03-13T12:11:22.186Z,4.50
2023-03-13T12:14:06.818Z,5.00
2023-03-13T12:16:43.854Z,6.80
2023-03-13T12:19:18.001Z,5.80
2023-03-13T12:21:53.723Z,6.60
2023-03-13T12:24:36.199Z,5.00
2023-03-13T12:27:10.465Z,5.40
2023-03-13T12:30:06.947Z,14.00
2023-03-13T12:33:16.764Z,7.70
2023-03-13T12:35:49.582Z,8.10
2023-03-13T12:38:25.105Z,6.20
2023-03-13T12:41:21.379Z,6.60
2023-03-13T12:44:07.174Z,5.80
2023-03-13T12:46:57.955Z,6.30
2023-03-13T12:49:36.895Z,8.50
2023-03-13T12:52:18.595Z,9.20
2023-03-13T12:55:18.735Z,7.10
2023-03-13T12:58:08.944Z,7.30
2023-03-13T13:00:40.689Z,7.30
2023-03-13T13:03:37.001Z,7.50
2023-03-13T13:06:16.810Z,6.20
2023-03-13T13:09:07.785Z,5.50
2023-03-13T13:11:39.377Z,5.00
2023-03-13T13:14:19.832Z,5.50
2023-03-13T13:16:57.603Z,5.80
2023-03-13T13:19:25.722Z,7.70
2023-03-13T13:22:33.644Z,11.20
2023-03-13T13:25:22.954Z,6.20
2023-03-13T13:27:52.131Z,5.60
2023-03-13T13:30:20.270Z,11.50
2023-03-13T13:32:56.500Z,7.60
2023-03-13T13:35:36.813Z,9.00
2023-03-13T13:38:29.326Z,9.00
2023-03-13T13:41:11.306Z,8.60
2023-03-13T13:43:48.270Z,6.20
2023-03-13T13:46:25.517Z,6.00
2023-03-13T13:49:05.877Z,7.00
2023-03-13T13:51:38.648Z,6.10
2023-03-13T13:54:12.968Z,7.50
2023-03-13T13:56:47.097Z,6.50
2023-03-13T13:59:21.567Z,7.80
2023-03-13T14:04:29.947Z,7.40
2023-03-13T14:07:03.420Z,7.90
2023-03-13T14:09:41.054Z,8.80
2023-03-13T14:12:27.580Z,8.60
2023-03-13T14:15:14.882Z,8.80
2023-03-13T14:17:46.620Z,9.90
2023-03-13T14:20:35.736Z,9.20
2023-03-13T14:23:09.976Z,10.20
2023-03-13T14:25:46.513Z,7.00
2023-03-13T14:28:22.427Z,38.90
2023-03-13T14:30:53.732Z,65.60
2023-03-13T14:33:22.317Z,16.80
2023-03-13T14:35:50.745Z,9.10
2023-03-13T14:38:21.933Z,8.70
2023-03-13T14:40:52.054Z,17.40
2023-03-13T14:43:28.049Z,19.30
2023-03-13T14:45:56.542Z,11.60
2023-03-13T14:48:34.655Z,76.20
2023-03-13T14:51:25.732Z,95.80
2023-03-13T14:53:56.113Z,57.70
2023-03-13T14:56:36.548Z,56.80
2023-03-13T14:59:23.594Z,12.10
2023-03-13T15:02:13.564Z,41.40
2023-03-13T15:05:01.794Z,10.00
2023-03-13T15:07:46.323Z,8.70
2023-03-13T15:10:37.113Z,7.10
2023-03-13T15:13:25.492Z,15.00
2023-03-13T15:15:54.373Z,14.40
2023-03-13T15:18:29.360Z,7.90
2023-03-13T15:21:20.855Z,9.10
2023-03-13T15:23:53.282Z,10.20
2023-03-13T15:26:22.510Z,16.70
2023-03-13T15:28:51.256Z,12.10
2023-03-13T15:31:20.854Z,12.60
2023-03-13T15:33:54.885Z,11.60
2023-03-13T15:36:23.073Z,17.00
2023-03-13T15:38:53.021Z,13.30
2023-03-13T15:41:22.551Z,15.40
2023-03-13T15:43:52.800Z,12.30
2023-03-13T15:46:21.573Z,20.20
2023-03-13T15:48:51.455Z,13.00
2023-03-13T15:51:21.028Z,9.00
2023-03-13T15:53:49.310Z,11.00
2023-03-13T15:56:20.423Z,9.70
2023-03-13T15:58:51.181Z,9.30
2023-03-13T16:01:19.702Z,11.20
2023-03-13T16:03:47.869Z,9.90
2023-03-13T16:06:19.992Z,9.40
2023-03-13T16:08:48.134Z,10.80
2023-03-13T16:11:17.286Z,18.50
2023-03-13T16:13:45.485Z,21.10
2023-03-13T16:16:22.883Z,24.30
2023-03-13T16:18:53.038Z,25.30
2023-03-13T16:21:26.177Z,20.90
2023-03-13T16:23:54.966Z,47.20
2023-03-13T16:26:29.284Z,37.10
2023-03-13T16:31:29.837Z,60.10
2023-03-13T16:33:59.610Z,78.20
2023-03-13T16:36:31.418Z,83.30
2023-03-13T16:39:02.227Z,63.90
2023-03-13T16:41:30.480Z,42.60
2023-03-13T16:43:58.912Z,16.40
2023-03-13T16:46:35.496Z,13.80
2023-03-13T16:49:04.908Z,10.00
2023-03-13T16:51:33.457Z,10.40
2023-03-13T16:54:02.065Z,10.70
2023-03-13T16:56:35.786Z,13.60
2023-03-13T16:59:10.856Z,10.30
2023-03-13T17:01:39.668Z,10.80
2023-03-13T17:04:08.140Z,10.50
2023-03-13T17:06:37.776Z,14.60
2023-03-13T17:09:12.260Z,22.50
2023-03-13T17:11:40.700Z,14.90
2023-03-13T17:14:09.737Z,26.30
2023-03-13T17:16:45.255Z,27.10
2023-03-13T17:19:15.367Z,21.60
2023-03-13T17:21:43.550Z,39.80
2023-03-13T17:24:11.853Z,24.60
2023-03-13T17:26:40.474Z,24.50
2023-03-13T17:29:12.328Z,24.70
2023-03-13T17:31:41.099Z,26.00
2023-03-13T17:34:09.897Z,17.80
2023-03-13T17:36:38.033Z,19.70
2023-03-13T17:39:09.052Z,12.30
2023-03-13T17:41:37.576Z,31.20
2023-03-13T17:44:07.833Z,25.00
2023-03-13T17:46:42.129Z,60.70
2023-03-13T17:51:44.636Z,23.30
2023-03-13T17:54:15.249Z,28.70
2023-03-13T17:56:45.315Z,29.50
2023-03-13T17:59:17.726Z,27.00
2023-03-13T18:01:46.439Z,31.30
2023-03-13T18:04:14.719Z,18.00
2023-03-13T18:06:48.836Z,17.10
2023-03-13T18:11:48.062Z,24.60
2023-03-13T18:14:16.497Z,20.90
2023-03-13T18:16:50.463Z,23.60
2023-03-13T18:19:22.685Z,25.20
2023-03-13T18:21:54.214Z,47.00
2023-03-13T18:24:23.191Z,57.70
2023-03-13T18:26:51.411Z,55.90
2023-03-13T18:29:27.153Z,52.10
2023-03-13T18:31:58.862Z,72.30
2023-03-13T18:34:28.320Z,183.10
2023-03-13T18:37:03.612Z,145.70
2023-03-13T18:39:34.159Z,157.50
2023-03-13T18:42:02.330Z,132.40
2023-03-13T18:44:30.463Z,126.60
2023-03-13T18:46:58.600Z,126.00
2023-03-13T18:49:26.781Z,131.40
2023-03-13T18:51:54.977Z,131.80
2023-03-13T18:54:23.137Z,122.00
2023-03-13T18:56:51.546Z,112.40
2023-03-13T18:59:21.649Z,98.70
2023-03-13T19:01:51.350Z,101.00
2023-03-13T19:04:20.005Z,80.00
2023-03-13T19:06:48.721Z,62.70
2023-03-13T19:09:47.730Z,59.10
2023-03-13T19:12:07.835Z,54.70
2023-03-13T19:14:35.996Z,42.60
2023-03-13T19:17:07.207Z,43.00
2023-03-13T19:19:35.501Z,46.60
2023-03-13T19:22:03.775Z,42.80
2023-03-13T19:24:32.037Z,38.30
2023-03-13T19:27:00.473Z,46.50
2023-03-13T19:29:29.183Z,47.10
2023-03-13T19:31:59.422Z,45.00
2023-03-13T19:34:27.858Z,58.60
2023-03-13T19:36:55.951Z,77.70
2023-03-13T19:39:26.061Z,55.60
2023-03-13T19:41:54.423Z,67.00
2023-03-13T19:44:24.318Z,52.20
2023-03-13T19:46:54.719Z,68.80
2023-03-13T19:49:23.281Z,39.60
2023-03-13T19:51:51.463Z,42.40
2023-03-13T19:54:20.218Z,40.20
2023-03-13T19:56:49.403Z,47.10
2023-03-13T19:59:26.971Z,53.90
2023-03-13T20:01:59.758Z,64.20
2023-03-13T20:04:28.127Z,58.20
2023-03-13T20:06:56.505Z,57.30
2023-03-13T20:09:24.912Z,66.10
2023-03-13T20:11:53.083Z,91.40
2023-03-13T20:14:21.321Z,154.60
2023-03-13T20:16:49.413Z,136.70
2023-03-13T20:19:17.894Z,177.60
2023-03-13T20:21:46.734Z,150.30
2023-03-13T20:24:15.008Z,113.90
2023-03-13T20:26:43.296Z,120.80
2023-03-13T20:29:11.648Z,110.90
2023-03-13T20:31:40.031Z,75.90
2023-03-13T20:34:08.335Z,55.00
2023-03-13T20:36:36.568Z,56.60
2023-03-13T20:39:05.738Z,44.00
2023-03-13T20:41:34.374Z,34.30
2023-03-13T20:44:02.607Z,39.60
2023-03-13T20:46:30.898Z,39.10
2023-03-13T20:48:59.215Z,36.30
2023-03-13T20:51:29.117Z,40.00
2023-03-13T20:53:57.278Z,50.40
2023-03-13T20:56:25.439Z,45.40
2023-03-13T20:58:53.533Z,50.30
2023-03-13T21:01:22.472Z,51.40
2023-03-13T21:03:50.842Z,50.40
2023-03-13T21:06:19.380Z,62.00
2023-03-13T21:08:47.600Z,87.30
2023-03-13T21:11:20.754Z,76.50
2023-03-13T21:13:50.195Z,70.00
2023-03-13T21:16:20.101Z,95.80
2023-03-13T21:18:48.430Z,90.50
2023-03-13T21:21:19.662Z,72.70
2023-03-13T21:23:51.984Z,46.60
2023-03-13T21:26:20.842Z,38.00
2023-03-13T21:28:49.134Z,35.40
2023-03-13T21:31:19.410Z,30.80
2023-03-13T21:33:48.673Z,34.00
2023-03-13T21:36:20.742Z,33.70
2023-03-13T21:38:50.344Z,39.30
2023-03-13T21:41:20.615Z,36.60
2023-03-13T21:43:49.040Z,37.10
2023-03-13T21:46:18.371Z,40.60
2023-03-13T21:48:47.345Z,45.60
2023-03-13T21:51:16.030Z,49.80
2023-03-13T21:53:44.803Z,57.10
2023-03-13T21:56:15.839Z,59.70
2023-03-13T21:58:48.096Z,61.50
2023-03-13T22:01:16.596Z,72.80
2023-03-13T22:03:44.856Z,97.10
2023-03-13T22:06:18.586Z,137.40
2023-03-13T22:08:51.285Z,92.70
2023-03-13T22:11:19.386Z,102.80
2023-03-13T22:13:48.084Z,72.30
2023-03-13T22:16:16.288Z,81.10
2023-03-13T22:18:44.389Z,82.00
2023-03-13T22:21:13.268Z,85.10
2023-03-13T22:23:41.450Z,88.90
2023-03-13T22:26:13.184Z,92.50
2023-03-13T22:28:44.585Z,96.70
2023-03-13T22:31:16.686Z,126.00
2023-03-13T22:33:44.770Z,109.60
2023-03-13T22:36:13.009Z,141.10
2023-03-13T22:38:41.264Z,119.90
2023-03-13T22:41:12.746Z,102.80
2023-03-13T22:43:40.928Z,108.90
2023-03-13T22:46:11.251Z,92.50
2023-03-13T22:48:40.464Z,99.60
2023-03-13T22:51:11.220Z,69.70
2023-03-13T22:53:41.243Z,61.50
2023-03-13T22:56:12.138Z,55.00
2023-03-13T22:58:41.679Z,46.80
2023-03-13T23:01:15.237Z,33.60
2023-03-13T23:03:44.458Z,31.30
2023-03-13T23:06:21.604Z,27.20
2023-03-13T23:08:50.663Z,30.20
2023-03-13T23:11:20.472Z,27.30
2023-03-13T23:13:49.409Z,28.90
2023-03-13T23:16:17.619Z,27.90
2023-03-13T23:18:45.793Z,26.40
2023-03-13T23:21:15.503Z,49.50
2023-03-13T23:23:44.731Z,55.20
2023-03-13T23:26:15.929Z,69.00
2023-03-13T23:28:44.285Z,52.80
2023-03-13T23:31:15.404Z,67.10
2023-03-13T23:33:43.855Z,70.60
2023-03-13T23:36:15.438Z,70.60
2023-03-13T23:38:44.436Z,65.00
2023-03-13T23:41:14.324Z,74.30
2023-03-13T23:43:42.671Z,72.80
2023-03-13T23:46:19.496Z,69.90
2023-03-13T23:48:47.886Z,87.70
2023-03-13T23:51:16.053Z,99.60
2023-03-13T23:53:44.406Z,89.00
2023-03-13T23:56:13.087Z,96.00
2023-03-13T23:58:41.321Z,85.20
